Time;durP1;ratioP1;P1;durP2;ratioP2;P2;SDS_P1;SDS_P2;PMS_P1;PMS_P2;Temp;Humidity;BMP_temperature;BMP_pressure;BME280_temperature;BME280_humidity;BME280_pressure;Samples;Min_cycle;Max_cycle;Signal;HPM_P1;HPM_P2
2021/08/05 00:02:10;;;;;;;5.43;4.93;;;;;;;20.51;73.53;98744.31;5027528;28;20286;-92
2021/08/05 00:04:38;;;;;;;5.33;4.80;;;;;;;20.54;73.57;98743.69;4979667;28;20289;-93
2021/08/05 00:07:05;;;;;;;5.37;4.97;;;;;;;20.42;73.56;98729.81;5011900;28;20265;-92
2021/08/05 00:09:33;;;;;;;5.93;5.07;;;;;;;20.40;73.99;98726.56;4963199;28;20582;-89
2021/08/05 00:11:59;;;;;;;5.33;4.83;;;;;;;20.50;74.04;98739.16;4995090;28;20254;-89
2021/08/05 00:14:26;;;;;;;5.87;5.37;;;;;;;20.46;73.15;98730.81;5027579;28;20626;-92
2021/08/05 00:16:53;;;;;;;5.80;5.30;;;;;;;20.44;73.75;98721.31;5011969;28;20538;-89
2021/08/05 00:19:20;;;;;;;6.10;5.60;;;;;;;20.47;73.50;98715.28;5011726;28;20246;-93
2021/08/05 00:21:46;;;;;;;6.60;6.00;;;;;;;20.29;74.24;98722.47;4995242;28;20310;-92
2021/08/05 00:24:13;;;;;;;6.20;5.70;;;;;;;20.38;74.29;98722.56;5027347;28;20231;-90
2021/08/05 00:26:40;;;;;;;6.50;6.00;;;;;;;20.39;74.56;98722.25;4994720;28;20314;-89
2021/08/05 00:29:07;;;;;;;6.60;6.00;;;;;;;20.40;73.94;98725.78;5026931;28;20269;-90
2021/08/05 00:31:37;;;;;;;7.27;6.57;;;;;;;20.48;74.25;98728.56;4994175;28;20258;-90
2021/08/05 00:34:04;;;;;;;7.20;6.60;;;;;;;20.41;73.83;98719.22;5026741;28;20224;-89
2021/08/05 00:36:31;;;;;;;7.40;6.10;;;;;;;20.41;73.61;98728.19;5010873;28;20693;-89
2021/08/05 00:38:59;;;;;;;7.03;6.43;;;;;;;20.45;73.94;98725.66;4993957;28;20240;-90
2021/08/05 00:41:25;;;;;;;7.30;6.60;;;;;;;20.46;74.11;98721.84;5010512;28;20579;-92
2021/08/05 00:43:52;;;;;;;7.70;7.00;;;;;;;20.39;73.92;98708.63;5027290;28;20310;-90
2021/08/05 00:46:19;;;;;;;8.10;7.33;;;;;;;20.42;74.58;98718.13;4994014;28;20236;-92
2021/08/05 00:48:46;;;;;;;7.67;6.97;;;;;;;20.42;74.15;98707.25;4995378;28;20697;-92
2021/08/05 00:51:13;;;;;;;7.27;6.63;;;;;;;20.42;74.31;98716.22;5030657;28;20245;-89
2021/08/05 00:53:42;;;;;;;7.60;6.90;;;;;;;20.50;74.43;98725.56;4997254;28;20674;-88
2021/08/05 00:56:08;;;;;;;7.40;6.80;;;;;;;20.49;74.26;98722.03;5029663;28;20286;-91
2021/08/05 00:58:35;;;;;;;7.93;6.53;;;;;;;20.42;74.41;98702.59;4966510;28;20239;-90
2021/08/05 01:01:11;;;;;;;7.90;7.20;;;;;;;20.57;74.16;98713.16;4965897;28;20639;-91
2021/08/05 01:03:44;;;;;;;7.47;6.87;;;;;;;20.49;74.03;98718.50;4997951;28;20571;-90
2021/08/05 01:06:34;;;;;;;7.10;6.50;;;;;;;20.51;73.93;98705.41;4968597;28;20223;-91
2021/08/05 01:09:17;;;;;;;7.23;6.63;;;;;;;20.59;73.52;98727.25;4997956;28;20286;-89
2021/08/05 01:11:47;;;;;;;8.23;7.43;;;;;;;20.53;73.70;98708.63;4997890;28;20231;-91
2021/08/05 01:14:17;;;;;;;6.77;6.17;;;;;;;20.58;74.00;98725.63;4997348;28;20247;-92
2021/08/05 01:16:47;;;;;;;6.90;6.40;;;;;;;20.64;74.14;98724.41;4997444;28;20270;-92
2021/08/05 01:19:39;;;;;;;7.83;7.03;;;;;;;20.63;73.90;98714.63;4981802;28;20231;-90
2021/08/05 01:22:16;;;;;;;7.50;6.77;;;;;;;20.65;73.99;98698.00;4996975;28;20246;-93
2021/08/05 01:24:57;;;;;;;7.40;6.73;;;;;;;20.56;73.58;98684.34;4997477;28;20301;-90
2021/08/05 01:27:25;;;;;;;6.90;6.30;;;;;;;20.49;73.79;98677.69;4965794;28;20231;-90
2021/08/05 01:29:52;;;;;;;7.77;7.07;;;;;;;20.54;73.61;98683.81;4965441;28;20238;-91
2021/08/05 01:32:20;;;;;;;7.80;7.10;;;;;;;20.46;73.47;98681.84;5029857;28;20227;-91
2021/08/05 01:34:47;;;;;;;7.70;7.10;;;;;;;20.49;73.60;98686.66;4965312;28;20251;-91
2021/08/05 01:37:16;;;;;;;7.20;6.60;;;;;;;20.45;73.65;98679.41;4981240;28;20231;-93
2021/08/05 01:39:44;;;;;;;8.10;7.30;;;;;;;20.51;73.86;98689.06;4997327;28;20259;-91
2021/08/05 01:42:16;;;;;;;8.00;7.30;;;;;;;20.67;73.16;98681.38;4997216;28;20700;-93
2021/08/05 01:44:45;;;;;;;7.53;6.87;;;;;;;20.60;73.09;98673.63;4981148;28;20235;-93
2021/08/05 01:47:15;;;;;;;8.57;7.67;;;;;;;20.55;73.34;98666.38;4997008;28;20228;-90
2021/08/05 01:49:42;;;;;;;8.07;7.20;;;;;;;20.53;73.05;98665.88;4981178;28;20251;-90
2021/08/05 01:52:12;;;;;;;7.53;6.93;;;;;;;20.50;73.55;98654.81;4996953;28;20231;-92
2021/08/05 01:54:40;;;;;;;8.30;7.50;;;;;;;20.56;73.66;98659.03;4965461;28;20240;-89
2021/08/05 01:57:09;;;;;;;7.80;7.17;;;;;;;20.54;73.74;98659.34;4981064;28;20591;-93
2021/08/05 01:59:36;;;;;;;7.63;6.93;;;;;;;20.64;73.52;98661.00;4996654;28;20236;-93
2021/08/05 02:02:04;;;;;;;7.90;7.13;;;;;;;20.48;73.76;98644.22;4980483;28;20227;-94
2021/08/05 02:04:44;;;;;;;8.20;7.40;;;;;;;20.28;73.82;98638.44;4996658;28;20573;-94
2021/08/05 02:07:22;;;;;;;7.80;7.10;;;;;;;20.26;73.60;98632.47;4997079;28;20232;-92
2021/08/05 02:10:10;;;;;;;7.43;6.67;;;;;;;20.36;74.36;98633.09;5013313;28;20646;-93
2021/08/05 02:12:43;;;;;;;8.17;7.33;;;;;;;20.46;74.28;98642.94;4996686;28;20638;-92
2021/08/05 02:15:11;;;;;;;7.53;6.83;;;;;;;20.40;74.19;98634.09;4996945;28;20227;-93
2021/08/05 02:17:40;;;;;;;7.70;7.00;;;;;;;20.51;74.22;98640.91;4980607;28;20700;-91
2021/08/05 02:20:09;;;;;;;7.40;6.70;;;;;;;20.45;73.56;98625.00;4980260;28;20298;-94
2021/08/05 02:22:39;;;;;;;7.00;6.40;;;;;;;20.52;73.88;98637.09;4980472;28;20232;-92
2021/08/05 02:25:07;;;;;;;7.07;6.37;;;;;;;20.47;74.02;98633.66;4980484;28;20234;-94
2021/08/05 02:27:34;;;;;;;7.63;6.93;;;;;;;20.52;73.66;98642.53;4964498;28;20579;-93
2021/08/05 02:30:04;;;;;;;7.67;7.03;;;;;;;20.45;73.65;98631.25;4996050;28;20224;-89
2021/08/05 02:32:31;;;;;;;8.80;8.00;;;;;;;20.38;74.09;98628.16;5012626;28;20232;-94
2021/08/05 02:35:07;;;;;;;8.00;7.30;;;;;;;20.48;73.80;98633.34;4996549;28;20227;-94
2021/08/05 02:37:34;;;;;;;8.03;7.33;;;;;;;20.52;73.70;98637.09;4976927;28;20231;-93
2021/08/05 02:40:03;;;;;;;8.03;7.33;;;;;;;20.48;73.71;98638.00;4979455;28;20227;-88
2021/08/05 02:42:30;;;;;;;7.97;7.30;;;;;;;20.55;73.53;98632.94;4980039;28;20223;-94
2021/08/05 02:44:58;;;;;;;8.70;7.87;;;;;;;20.46;73.73;98624.69;4980399;28;20243;-93
2021/08/05 02:47:25;;;;;;;8.93;8.13;;;;;;;20.52;73.84;98642.53;4980728;28;20251;-94
2021/08/05 02:49:53;;;;;;;9.10;8.30;;;;;;;20.60;73.46;98639.06;5012459;28;20710;-93
2021/08/05 02:52:21;;;;;;;10.07;9.17;;;;;;;20.53;73.62;98624.28;5012076;28;20298;-94
2021/08/05 02:54:48;;;;;;;10.87;9.87;;;;;;;20.41;74.25;98605.78;4995777;28;20331;-93
2021/08/05 02:57:15;;;;;;;10.53;9.53;;;;;;;20.41;74.51;98613.13;4962533;28;20232;-94
2021/08/05 02:59:42;;;;;;;11.73;10.63;;;;;;;20.52;74.01;98619.94;4995872;28;20594;-94
2021/08/05 03:02:09;;;;;;;11.50;10.50;;;;;;;20.38;74.38;98609.13;4979443;28;20639;-94
2021/08/05 03:04:36;;;;;;;12.00;10.93;;;;;;;20.42;74.18;98609.31;4995508;28;20231;-92
2021/08/05 03:07:04;;;;;;;11.80;10.70;;;;;;;20.25;74.64;98617.31;4996173;28;20223;-94
2021/08/05 03:09:31;;;;;;;12.57;11.37;;;;;;;20.25;74.79;98601.75;4963427;28;20666;-92
2021/08/05 03:11:58;;;;;;;11.50;10.30;;;;;;;20.25;74.37;98609.91;4975878;28;20303;-94
2021/08/05 03:14:25;;;;;;;11.87;10.77;;;;;;;20.28;74.73;98608.50;4963344;28;20247;-92
2021/08/05 03:16:52;;;;;;;11.73;10.63;;;;;;;20.24;74.70;98602.91;4995961;28;20232;-93
2021/08/05 03:19:19;;;;;;;12.67;11.47;;;;;;;20.13;74.54;98591.44;4979332;28;20243;-92
2021/08/05 03:21:45;;;;;;;12.60;11.40;;;;;;;20.14;74.51;98575.94;4979608;28;20685;-93
2021/08/05 03:24:13;;;;;;;12.53;11.33;;;;;;;20.20;75.03;98585.59;4995121;28;20575;-93
2021/08/05 03:26:40;;;;;;;12.43;11.17;;;;;;;20.19;73.85;98594.84;4963860;28;20239;-93
2021/08/05 03:29:07;;;;;;;12.97;11.67;;;;;;;20.07;74.49;98589.94;4963501;28;20223;-93
2021/08/05 03:31:33;;;;;;;13.17;11.97;;;;;;;20.20;74.79;98599.97;4995286;28;20232;-92
2021/08/05 03:34:00;;;;;;;12.87;11.57;;;;;;;20.27;74.50;98606.91;4979345;28;20638;-93
2021/08/05 03:36:27;;;;;;;12.77;11.57;;;;;;;20.16;75.10;98596.25;4963279;28;20563;-92
2021/08/05 03:38:54;;;;;;;12.73;11.63;;;;;;;20.20;74.63;98591.81;4995112;28;20227;-93
2021/08/05 03:41:21;;;;;;;14.20;12.77;;;;;;;20.20;75.01;98597.25;4995287;28;20255;-91
2021/08/05 03:43:48;;;;;;;13.70;12.47;;;;;;;20.20;75.13;98610.06;4979023;28;20239;-92
2021/08/05 03:46:14;;;;;;;13.73;12.43;;;;;;;20.25;75.00;98599.03;4994804;28;20255;-91
2021/08/05 03:48:41;;;;;;;13.07;11.87;;;;;;;20.26;74.77;98584.34;4978814;28;20245;-91
2021/08/05 03:51:08;;;;;;;12.47;11.30;;;;;;;20.31;74.72;98589.69;4995099;28;20231;-91
2021/08/05 03:53:35;;;;;;;12.07;10.93;;;;;;;20.30;74.80;98592.69;4978794;28;20286;-92
2021/08/05 03:56:02;;;;;;;12.70;11.60;;;;;;;20.15;75.00;98583.78;4962275;28;20231;-92
2021/08/05 03:58:29;;;;;;;12.53;11.33;;;;;;;20.25;74.90;98587.38;4986872;28;20238;-92
2021/08/05 04:00:56;;;;;;;13.17;11.83;;;;;;;20.29;74.86;98577.50;4995067;28;20227;-92
2021/08/05 04:03:23;;;;;;;12.03;10.83;;;;;;;20.20;74.64;98574.72;4995360;28;20231;-93
2021/08/05 04:05:50;;;;;;;11.93;10.73;;;;;;;20.19;74.48;98571.19;4995225;28;20579;-93
2021/08/05 04:08:16;;;;;;;12.67;11.37;;;;;;;20.13;74.52;98566.16;4994465;28;20630;-91
2021/08/05 04:10:43;;;;;;;12.60;11.33;;;;;;;20.14;75.01;98571.31;4979059;28;20592;-95
2021/08/05 04:13:12;;;;;;;13.37;12.07;;;;;;;20.20;75.31;98575.50;4995129;28;20231;-92
2021/08/05 04:15:41;;;;;;;13.43;12.03;;;;;;;20.24;75.22;98564.81;4994585;28;20278;-94
2021/08/05 04:18:08;;;;;;;13.57;12.27;;;;;;;20.27;74.96;98561.47;4978625;28;20235;-95
2021/08/05 04:20:35;;;;;;;12.93;11.60;;;;;;;20.22;75.44;98569.75;4978971;28;20361;-94
2021/08/05 04:23:01;;;;;;;11.03;9.93;;;;;;;20.19;74.78;98564.94;4994808;28;20232;-90
2021/08/05 04:25:29;;;;;;;11.10;10.00;;;;;;;20.36;75.11;98570.53;4999512;28;20223;-94
2021/08/05 04:27:56;;;;;;;10.50;9.50;;;;;;;20.29;74.86;98564.69;4966830;28;20227;-94
2021/08/05 04:30:25;;;;;;;8.20;7.40;;;;;;;20.11;74.50;98560.25;4966134;28;20243;-94
2021/08/05 04:32:51;;;;;;;7.27;6.57;;;;;;;19.96;75.14;98561.38;4983159;28;20591;-96
2021/08/05 04:35:18;;;;;;;6.53;5.93;;;;;;;19.90;74.75;98559.88;4982468;28;20227;-92
2021/08/05 04:37:51;;;;;;;6.33;5.83;;;;;;;19.98;74.78;98563.78;5015590;28;20534;-91
2021/08/05 04:40:18;;;;;;;6.43;5.83;;;;;;;19.94;74.67;98543.75;4982879;28;20235;-94
2021/08/05 04:42:45;;;;;;;6.30;5.03;;;;;;;19.93;74.08;98553.03;4982884;28;20219;-94
2021/08/05 04:45:12;;;;;;;6.37;5.77;;;;;;;20.05;74.78;98564.97;4999012;28;20234;-94
2021/08/05 04:48:06;;;;;;;6.53;5.80;;;;;;;20.18;74.44;98566.03;4998955;28;20639;-93
2021/08/05 04:50:38;;;;;;;5.20;4.70;;;;;;;20.12;74.64;98565.34;5014656;28;20236;-94
2021/08/05 04:53:06;;;;;;;5.40;4.90;;;;;;;20.11;74.49;98552.09;4999090;28;20223;-93
2021/08/05 04:55:34;;;;;;;4.70;3.90;;;;;;;20.13;74.47;98549.84;4982510;28;20318;-94
2021/08/05 04:58:03;;;;;;;3.80;3.40;;;;;;;19.99;73.83;98551.81;4999099;28;20235;-91
2021/08/05 05:00:36;;;;;;;3.40;3.10;;;;;;;20.03;73.94;98545.44;5014730;28;20685;-93
2021/08/05 05:03:03;;;;;;;3.20;2.90;;;;;;;20.07;73.25;98541.00;4982593;28;20327;-91
2021/08/05 05:05:31;;;;;;;2.93;2.47;;;;;;;20.03;73.69;98536.47;4998679;28;20267;-90
2021/08/05 05:08:14;;;;;;;2.53;1.90;;;;;;;20.11;73.52;98538.50;4998682;28;20258;-91
2021/08/05 05:10:41;;;;;;;2.30;2.10;;;;;;;20.15;73.35;98534.84;5014486;28;20227;-91
2021/08/05 05:13:08;;;;;;;2.10;1.90;;;;;;;20.26;73.44;98518.25;5014944;28;20251;-93
2021/08/05 05:15:35;;;;;;;2.30;2.10;;;;;;;20.19;71.93;98503.19;4966299;28;20363;-93
2021/08/05 05:18:03;;;;;;;2.53;1.80;;;;;;;20.13;72.64;98515.31;4982260;28;20341;-92
2021/08/05 05:20:30;;;;;;;1.90;1.70;;;;;;;20.03;73.48;98522.88;4998569;28;20580;-93
2021/08/05 05:22:57;;;;;;;2.20;2.00;;;;;;;20.14;72.77;98529.69;4979024;28;20236;-92
2021/08/05 05:25:23;;;;;;;1.57;1.30;;;;;;;20.11;71.91;98525.66;4981961;28;20255;-91
2021/08/05 05:27:50;;;;;;;1.73;1.60;;;;;;;20.20;72.38;98540.13;4998380;28;20259;-93
2021/08/05 05:30:17;;;;;;;2.80;1.60;;;;;;;20.22;72.60;98520.78;4981703;28;20231;-91
2021/08/05 05:32:46;;;;;;;1.60;1.50;;;;;;;20.31;72.48;98524.41;4998073;28;20231;-92
2021/08/05 05:35:15;;;;;;;1.70;1.60;;;;;;;20.28;72.32;98537.81;4998265;28;20251;-91
2021/08/05 05:37:43;;;;;;;1.77;1.67;;;;;;;20.27;72.39;98538.91;4981959;28;20239;-90
2021/08/05 05:40:11;;;;;;;2.10;1.80;;;;;;;20.27;72.32;98526.13;5013805;28;20239;-92
2021/08/05 05:42:38;;;;;;;1.60;1.50;;;;;;;20.24;72.77;98507.72;4981828;28;20346;-91
2021/08/05 05:45:06;;;;;;;1.70;1.60;;;;;;;20.28;72.33;98518.75;5030915;28;20538;-90
2021/08/05 05:47:33;;;;;;;1.67;1.40;;;;;;;20.21;71.75;98502.88;5014314;28;20351;-92
2021/08/05 05:49:59;;;;;;;2.70;1.43;;;;;;;20.26;72.53;98512.81;5014276;28;20298;-91
2021/08/05 05:52:26;;;;;;;2.70;1.53;;;;;;;20.32;72.63;98517.88;4980938;28;20242;-90
2021/08/05 05:54:53;;;;;;;2.50;1.90;;;;;;;20.32;72.78;98509.72;5013744;28;20623;-91
2021/08/05 05:57:20;;;;;;;1.57;1.47;;;;;;;20.26;72.20;98488.34;4981592;28;20235;-94
2021/08/05 05:59:47;;;;;;;1.80;1.40;;;;;;;20.32;72.00;98503.47;4997821;28;20235;-90
2021/08/05 06:02:14;;;;;;;1.70;1.60;;;;;;;20.35;72.10;98500.09;5029655;28;20618;-92
2021/08/05 06:04:41;;;;;;;1.60;1.50;;;;;;;20.42;72.02;98490.41;5013882;28;20309;-90
2021/08/05 06:07:08;;;;;;;1.63;1.53;;;;;;;20.41;72.14;98501.59;4965590;28;20238;-92
2021/08/05 06:09:35;;;;;;;2.10;1.47;;;;;;;20.38;71.79;98504.94;4997306;28;20519;-91
2021/08/05 06:12:02;;;;;;;1.53;1.43;;;;;;;20.48;71.84;98510.13;5013084;28;20551;-92
2021/08/05 06:14:29;;;;;;;1.50;1.40;;;;;;;20.43;71.21;98504.81;4965018;28;20235;-91
2021/08/05 06:16:56;;;;;;;1.40;1.30;;;;;;;20.41;71.19;98502.41;5030093;28;20310;-90
2021/08/05 06:19:22;;;;;;;2.73;1.60;;;;;;;20.41;70.70;98507.84;4997323;28;20278;-90
2021/08/05 06:21:49;;;;;;;1.63;1.43;;;;;;;20.41;71.22;98513.28;5030133;28;20310;-92
2021/08/05 06:24:16;;;;;;;1.67;1.57;;;;;;;20.38;71.46;98504.94;4996362;28;20224;-92
2021/08/05 06:26:43;;;;;;;1.33;1.23;;;;;;;20.38;71.27;98510.38;5029736;28;20323;-91
2021/08/05 06:29:10;;;;;;;2.10;1.50;;;;;;;20.40;71.19;98517.13;5013266;28;20582;-90
2021/08/05 06:31:37;;;;;;;1.70;1.60;;;;;;;20.29;70.83;98514.94;4981259;28;20235;-89
2021/08/05 06:34:04;;;;;;;1.63;1.30;;;;;;;20.27;71.76;98517.16;4996361;28;20283;-91
2021/08/05 06:36:31;;;;;;;1.47;1.37;;;;;;;20.27;71.62;98519.88;4977391;28;20247;-89
2021/08/05 06:38:58;;;;;;;1.63;1.20;;;;;;;20.15;71.47;98504.94;4977483;28;20232;-91
2021/08/05 06:41:25;;;;;;;1.30;1.13;;;;;;;20.28;71.48;98510.59;4980330;28;20238;-92
2021/08/05 06:43:54;;;;;;;1.57;1.20;;;;;;;20.31;71.52;98504.56;4995979;28;20224;-91
2021/08/05 06:46:22;;;;;;;1.53;1.10;;;;;;;20.26;71.19;98496.50;4995686;28;20238;-90
2021/08/05 06:48:49;;;;;;;1.77;1.30;;;;;;;20.08;71.23;98484.72;4964783;28;20588;-90
2021/08/05 06:51:16;;;;;;;1.30;1.10;;;;;;;20.08;72.12;98487.44;4980449;28;20685;-94
2021/08/05 06:53:43;;;;;;;1.63;1.20;;;;;;;19.93;72.39;98488.59;4980241;28;20227;-91
2021/08/05 06:56:09;;;;;;;1.20;1.10;;;;;;;20.08;72.38;98482.78;4996058;28;20231;-93
2021/08/05 06:58:36;;;;;;;1.40;0.93;;;;;;;20.20;72.03;98491.19;4996902;28;20350;-89
2021/08/05 07:01:03;;;;;;;4.43;1.13;;;;;;;20.10;72.40;98493.38;4945180;29;20316;-89
2021/08/05 07:03:30;;;;;;;4.47;3.50;;;;;;;20.18;71.10;98508.94;4968563;28;20699;-89
2021/08/05 07:05:57;;;;;;;1.63;1.30;;;;;;;20.33;71.50;98516.75;4941361;29;20542;-90
2021/08/05 07:08:24;;;;;;;5.37;3.13;;;;;;;20.39;71.37;98522.88;4941246;29;20245;-90
2021/08/05 07:10:52;;;;;;;3.10;2.23;;;;;;;20.44;71.18;98533.59;4957453;29;20233;-89
2021/08/05 07:13:18;;;;;;;3.73;1.90;;;;;;;20.51;70.38;98536.72;4973175;28;20229;-90
2021/08/05 07:15:46;;;;;;;7.70;4.90;;;;;;;20.54;70.59;98536.09;4973013;28;20235;-91
2021/08/05 07:18:13;;;;;;;3.47;2.30;;;;;;;20.57;70.47;98547.16;4989506;28;20237;-90
2021/08/05 07:20:40;;;;;;;2.50;1.67;;;;;;;20.64;70.97;98542.06;4957157;28;20224;-89
2021/08/05 07:23:06;;;;;;;2.47;1.70;;;;;;;20.76;70.38;98540.72;4957238;28;20581;-90
2021/08/05 07:25:33;;;;;;;5.83;3.50;;;;;;;20.89;70.40;98543.34;4973342;28;20232;-90
2021/08/05 07:28:01;;;;;;;5.07;2.80;;;;;;;20.99;69.99;98537.63;4972567;28;20233;-87
2021/08/05 07:30:29;;;;;;;3.17;2.40;;;;;;;21.29;68.27;98524.28;4972992;28;20256;-90
2021/08/05 07:32:58;;;;;;;3.73;2.47;;;;;;;21.87;68.12;98540.28;4972694;28;20256;-90
2021/08/05 07:35:25;;;;;;;4.47;2.43;;;;;;;22.22;65.77;98522.00;4989281;28;20233;-91
2021/08/05 07:37:53;;;;;;;2.77;1.57;;;;;;;22.77;64.92;98530.28;4957217;29;20234;-89
2021/08/05 07:40:20;;;;;;;1.10;1.00;;;;;;;23.11;63.73;98541.09;4956525;28;20236;-88
2021/08/05 07:42:47;;;;;;;5.97;3.93;;;;;;;23.31;60.41;98520.44;4973038;28;20245;-89
2021/08/05 07:45:14;;;;;;;2.17;1.60;;;;;;;23.46;61.32;98532.78;4972930;28;20284;-89
2021/08/05 07:47:41;;;;;;;1.60;1.23;;;;;;;23.43;59.87;98523.25;4972828;28;20262;-88
2021/08/05 07:50:10;;;;;;;1.33;1.07;;;;;;;23.42;59.16;98523.63;4972014;28;20316;-86
2021/08/05 07:52:37;;;;;;;3.40;2.10;;;;;;;23.51;58.59;98522.47;4988241;28;20290;-86
2021/08/05 07:55:06;;;;;;;4.30;3.13;;;;;;;23.67;57.63;98519.94;4940408;29;20240;-86
2021/08/05 07:57:34;;;;;;;4.40;2.50;;;;;;;23.80;58.12;98518.06;4956048;28;20258;-89
2021/08/05 08:00:01;;;;;;;2.63;2.00;;;;;;;23.66;57.15;98513.66;4972073;28;20279;-89
2021/08/05 08:02:39;;;;;;;4.47;3.07;;;;;;;23.59;57.14;98507.94;4971313;28;20234;-88
2021/08/05 08:05:07;;;;;;;2.03;1.40;;;;;;;23.56;57.52;98503.09;4956509;28;20234;-86
2021/08/05 08:07:38;;;;;;;2.20;1.40;;;;;;;23.45;57.86;98482.78;4972360;28;20240;-88
2021/08/05 08:10:07;;;;;;;4.47;2.80;;;;;;;23.31;58.23;98493.13;4955860;28;20238;-89
2021/08/05 08:12:34;;;;;;;2.10;1.40;;;;;;;23.22;58.82;98498.63;4956299;29;20230;-88
2021/08/05 08:15:02;;;;;;;0.50;0.37;;;;;;;23.35;59.14;98515.13;4972222;28;20234;-88
2021/08/05 08:17:30;;;;;;;3.10;2.13;;;;;;;23.15;58.93;98503.00;4971894;28;20232;-87
2021/08/05 08:19:57;;;;;;;1.97;1.33;;;;;;;22.95;59.34;98501.81;4956293;28;20231;-89
2021/08/05 08:22:25;;;;;;;0.73;0.70;;;;;;;22.86;59.11;98505.72;4970763;28;20236;-88
2021/08/05 08:24:52;;;;;;;2.77;1.30;;;;;;;22.67;60.98;98506.06;4988607;28;20312;-89
2021/08/05 08:27:20;;;;;;;3.23;2.07;;;;;;;22.59;59.10;98496.75;4955682;28;20231;-86
2021/08/05 08:29:47;;;;;;;1.30;1.00;;;;;;;22.67;59.74;98497.88;4972079;28;20300;-89
2021/08/05 08:32:15;;;;;;;1.80;1.03;;;;;;;22.57;59.32;98479.09;4971231;28;20236;-86
2021/08/05 08:34:42;;;;;;;2.07;1.33;;;;;;;22.53;59.78;98476.25;4971767;28;20233;-86
2021/08/05 08:37:09;;;;;;;1.63;0.80;;;;;;;22.73;59.49;98480.19;4956213;28;20236;-89
2021/08/05 08:39:36;;;;;;;2.70;1.10;;;;;;;22.99;59.26;98467.25;4971745;28;20238;-86
2021/08/05 08:42:03;;;;;;;1.20;0.70;;;;;;;22.98;58.75;98456.66;4971382;28;20233;-85
2021/08/05 08:44:30;;;;;;;1.43;0.80;;;;;;;22.80;58.58;98455.94;4971925;28;20610;-87
2021/08/05 08:46:59;;;;;;;1.60;0.50;;;;;;;22.76;59.49;98463.97;4987786;28;20281;-86
2021/08/05 08:49:27;;;;;;;0.80;0.60;;;;;;;23.02;59.47;98442.00;4971693;28;20229;-85
2021/08/05 08:51:55;;;;;;;1.33;1.13;;;;;;;23.28;58.68;98458.25;4971879;28;20233;-86
2021/08/05 08:54:23;;;;;;;1.00;0.63;;;;;;;23.12;57.94;98452.56;4954894;28;20257;-86
2021/08/05 08:56:52;;;;;;;1.63;1.20;;;;;;;23.38;56.79;98435.19;4971654;28;20233;-86
2021/08/05 08:59:20;;;;;;;1.40;1.00;;;;;;;23.51;57.41;98447.84;4956216;28;20297;-86
2021/08/05 09:01:47;;;;;;;1.03;0.70;;;;;;;23.82;56.63;98440.03;4955655;28;20226;-88
2021/08/05 09:04:15;;;;;;;1.80;1.17;;;;;;;23.89;56.03;98442.25;4971401;28;20235;-88
2021/08/05 09:06:44;;;;;;;2.03;0.70;;;;;;;24.11;55.89;98461.03;4971564;28;20238;-87
2021/08/05 09:09:11;;;;;;;3.47;1.63;;;;;;;24.11;56.40;98474.69;4987439;28;20234;-87
2021/08/05 09:11:38;;;;;;;1.13;0.83;;;;;;;24.05;55.74;98462.34;4975489;28;20672;-87
2021/08/05 09:14:05;;;;;;;0.50;0.40;;;;;;;24.20;55.55;98450.03;4974508;28;20281;-87
2021/08/05 09:16:33;;;;;;;0.80;0.60;;;;;;;23.98;56.63;98459.38;4975353;28;20240;-86
2021/08/05 09:19:06;;;;;;;1.90;0.80;;;;;;;23.97;56.27;98469.53;4959364;28;20282;-87
2021/08/05 09:21:34;;;;;;;1.27;0.70;;;;;;;23.92;56.44;98447.84;4959381;28;20228;-87
2021/08/05 09:24:03;;;;;;;1.87;1.00;;;;;;;24.04;56.64;98468.97;4974644;28;20232;-87
2021/08/05 09:26:46;;;;;;;0.70;0.60;;;;;;;24.28;56.49;98476.50;4959065;28;20635;-88
2021/08/05 09:29:16;;;;;;;0.47;0.47;;;;;;;24.40;55.94;98474.59;4974618;28;20288;-87
2021/08/05 09:31:43;;;;;;;0.93;0.50;;;;;;;24.29;55.79;98475.38;4958651;28;20231;-86
2021/08/05 09:34:13;;;;;;;0.27;0.27;;;;;;;24.42;54.98;98468.78;4973532;28;20230;-87
2021/08/05 09:36:41;;;;;;;1.77;0.47;;;;;;;24.12;56.63;98465.38;4974676;28;20242;-87
2021/08/05 09:39:19;;;;;;;0.30;0.30;;;;;;;23.72;56.74;98472.44;4974321;28;20259;-87
2021/08/05 09:42:05;;;;;;;0.40;0.40;;;;;;;23.82;56.65;98463.84;4974686;28;20233;-86
2021/08/05 09:44:38;;;;;;;1.37;0.50;;;;;;;23.78;56.32;98468.38;4942753;29;20229;-87
2021/08/05 09:47:06;;;;;;;0.97;0.40;;;;;;;23.79;57.00;98464.53;4974812;28;20605;-87
2021/08/05 09:49:38;;;;;;;0.40;0.30;;;;;;;23.64;56.71;98458.53;4990794;28;20246;-87
2021/08/05 09:52:06;;;;;;;0.87;0.50;;;;;;;23.71;56.41;98460.72;4957697;28;20228;-87
2021/08/05 09:54:47;;;;;;;0.60;0.50;;;;;;;23.61;57.47;98456.44;4974739;28;20246;-87
2021/08/05 09:57:23;;;;;;;0.70;0.70;;;;;;;23.60;56.77;98460.31;4974226;28;20233;-87
2021/08/05 10:00:04;;;;;;;0.53;0.43;;;;;;;23.46;58.05;98446.13;4990292;28;20532;-85
2021/08/05 10:02:48;;;;;;;0.63;0.43;;;;;;;23.05;58.09;98446.03;4973341;28;20238;-87
2021/08/05 10:05:17;;;;;;;0.30;0.30;;;;;;;22.86;59.34;98453.81;4974200;28;20233;-87
2021/08/05 10:07:48;;;;;;;0.87;0.50;;;;;;;22.88;59.25;98449.63;4974452;28;20576;-88
2021/08/05 10:10:18;;;;;;;0.30;0.30;;;;;;;22.83;59.11;98449.81;4958054;28;20241;-87
2021/08/05 10:12:57;;;;;;;0.37;0.30;;;;;;;22.67;58.85;98448.72;4958366;28;20654;-87
2021/08/05 10:15:25;;;;;;;0.67;0.43;;;;;;;22.45;60.36;98455.19;4974119;28;20238;-87
2021/08/05 10:17:59;;;;;;;0.30;0.23;;;;;;;22.22;59.50;98449.16;4974610;28;20234;-88
2021/08/05 10:20:30;;;;;;;1.07;0.30;;;;;;;21.99;60.69;98445.03;4989225;28;20233;-88
2021/08/05 10:22:58;;;;;;;0.30;0.30;;;;;;;21.87;60.59;98462.03;4941341;29;20317;-87
2021/08/05 10:25:27;;;;;;;0.90;0.50;;;;;;;21.62;62.15;98460.09;4957975;28;20722;-88
2021/08/05 10:28:00;;;;;;;0.20;0.20;;;;;;;21.62;62.07;98453.81;4958223;28;20230;-88
2021/08/05 10:30:28;;;;;;;1.50;0.30;;;;;;;21.65;61.32;98464.88;4973376;28;20224;-88
2021/08/05 10:32:55;;;;;;;0.97;0.30;;;;;;;21.56;61.37;98455.91;4957907;28;20288;-88
2021/08/05 10:35:23;;;;;;;1.50;0.20;;;;;;;21.41;62.94;98442.75;4941980;29;20243;-89
2021/08/05 10:37:51;;;;;;;0.37;0.30;;;;;;;21.56;63.33;98458.63;4941776;29;20229;-89
2021/08/05 10:40:18;;;;;;;0.77;0.27;;;;;;;21.65;61.60;98443.06;4973333;28;20247;-87
2021/08/05 10:42:48;;;;;;;0.60;0.20;;;;;;;21.55;63.12;98448.88;4973606;28;20229;-86
2021/08/05 10:45:20;;;;;;;1.20;0.37;;;;;;;21.78;62.35;98455.78;4989299;28;20229;-89
2021/08/05 10:47:48;;;;;;;0.20;0.20;;;;;;;21.86;61.41;98444.06;4972617;28;20288;-86
2021/08/05 10:50:21;;;;;;;0.37;0.37;;;;;;;21.83;61.63;98450.16;4973052;28;20747;-86
2021/08/05 10:52:54;;;;;;;0.40;0.23;;;;;;;22.10;61.28;98451.75;4957731;28;20511;-88
2021/08/05 10:55:34;;;;;;;0.83;0.20;;;;;;;21.85;60.82;98447.09;4973582;28;20228;-87
2021/08/05 10:58:05;;;;;;;0.63;0.30;;;;;;;22.19;60.94;98468.13;4973173;28;20228;-86
2021/08/05 11:00:50;;;;;;;1.00;0.30;;;;;;;21.93;61.21;98468.13;4973507;28;20866;-86
2021/08/05 11:03:38;;;;;;;0.57;0.20;;;;;;;21.97;61.32;98469.09;4973511;28;20326;-86
2021/08/05 11:06:08;;;;;;;0.30;0.30;;;;;;;21.74;61.92;98448.56;4973238;28;20225;-88
2021/08/05 11:08:35;;;;;;;0.37;0.30;;;;;;;21.52;63.38;98463.13;4957066;28;20248;-86
2021/08/05 11:11:30;;;;;;;0.27;0.23;;;;;;;21.53;62.95;98459.28;4957010;28;20235;-85
2021/08/05 11:14:01;;;;;;;0.30;0.30;;;;;;;21.72;62.59;98470.66;4956196;28;20271;-87
2021/08/05 11:16:50;;;;;;;0.17;0.17;;;;;;;21.48;62.65;98464.88;4940401;28;20260;-91
2021/08/05 11:19:26;;;;;;;0.30;0.30;;;;;;;21.58;62.95;98463.75;4973305;28;20326;-88
2021/08/05 11:21:53;;;;;;;0.87;0.30;;;;;;;21.44;62.98;98448.38;4973319;28;20267;-88
2021/08/05 11:24:56;;;;;;;0.20;0.20;;;;;;;21.45;62.89;98455.44;4972574;28;20687;-88
2021/08/05 11:27:23;;;;;;;0.67;0.57;;;;;;;21.63;62.46;98455.44;4920906;29;20316;-90
2021/08/05 11:29:50;;;;;;;0.40;0.30;;;;;;;21.69;62.23;98437.81;4937559;29;20343;-90
2021/08/05 11:32:26;;;;;;;0.43;0.30;;;;;;;22.01;62.31;98459.16;4956464;28;20265;-89
2021/08/05 11:35:07;;;;;;;0.50;0.27;;;;;;;22.18;60.89;98461.03;4957245;28;20236;-88
2021/08/05 11:37:35;;;;;;;0.73;0.30;;;;;;;22.18;60.97;98433.78;4973304;28;20265;-90
2021/08/05 11:40:06;;;;;;;1.20;0.27;;;;;;;22.29;60.24;98446.75;4988629;28;20417;-90
2021/08/05 11:42:36;;;;;;;0.27;0.27;;;;;;;22.35;59.88;98434.53;4958298;29;20377;-90